sensor_id;sensor_type;location;lat;lon;timestamp;P1;durP1;ratioP1;P2;durP2;ratioP2
67602;SDS011;54417;47.454;18.918;2023-06-19T00:03:46;8.47;;;6.60;;
67602;SDS011;54417;47.454;18.918;2023-06-19T00:08:50;7.22;;;5.95;;
67602;SDS011;54417;47.454;18.918;2023-06-19T00:13:55;10.32;;;6.50;;
67602;SDS011;54417;47.454;18.918;2023-06-19T00:19:04;8.37;;;5.80;;
67602;SDS011;54417;47.454;18.918;2023-06-19T00:24:13;7.85;;;5.75;;
67602;SDS011;54417;47.454;18.918;2023-06-19T00:29:18;10.52;;;6.60;;
67602;SDS011;54417;47.454;18.918;2023-06-19T00:34:28;8.43;;;6.37;;
67602;SDS011;54417;47.454;18.918;2023-06-19T00:39:32;8.68;;;6.57;;
67602;SDS011;54417;47.454;18.918;2023-06-19T00:44:43;7.25;;;6.03;;
67602;SDS011;54417;47.454;18.918;2023-06-19T00:49:46;7.82;;;6.75;;
67602;SDS011;54417;47.454;18.918;2023-06-19T00:54:50;9.15;;;6.70;;
67602;SDS011;54417;47.454;18.918;2023-06-19T01:00:02;10.20;;;6.47;;
67602;SDS011;54417;47.454;18.918;2023-06-19T01:05:09;6.78;;;6.07;;
67602;SDS011;54417;47.454;18.918;2023-06-19T01:10:13;9.88;;;7.03;;
67602;SDS011;54417;47.454;18.918;2023-06-19T01:15:22;11.80;;;6.75;;
67602;SDS011;54417;47.454;18.918;2023-06-19T01:20:31;8.77;;;6.50;;
67602;SDS011;54417;47.454;18.918;2023-06-19T01:25:37;8.73;;;6.55;;
67602;SDS011;54417;47.454;18.918;2023-06-19T01:30:41;8.35;;;6.40;;
67602;SDS011;54417;47.454;18.918;2023-06-19T01:35:46;7.82;;;6.85;;
67602;SDS011;54417;47.454;18.918;2023-06-19T01:40:58;8.30;;;6.90;;
67602;SDS011;54417;47.454;18.918;2023-06-19T01:46:04;9.73;;;6.85;;
67602;SDS011;54417;47.454;18.918;2023-06-19T01:51:14;10.60;;;6.95;;
67602;SDS011;54417;47.454;18.918;2023-06-19T01:56:20;7.88;;;6.40;;
67602;SDS011;54417;47.454;18.918;2023-06-19T02:01:31;10.30;;;6.20;;
67602;SDS011;54417;47.454;18.918;2023-06-19T02:06:41;10.27;;;7.28;;
67602;SDS011;54417;47.454;18.918;2023-06-19T02:11:51;10.75;;;7.22;;
67602;SDS011;54417;47.454;18.918;2023-06-19T02:16:54;9.63;;;7.07;;
67602;SDS011;54417;47.454;18.918;2023-06-19T02:22:03;7.88;;;6.55;;
67602;SDS011;54417;47.454;18.918;2023-06-19T02:27:14;9.48;;;6.85;;
67602;SDS011;54417;47.454;18.918;2023-06-19T02:32:24;9.10;;;6.82;;
67602;SDS011;54417;47.454;18.918;2023-06-19T02:37:35;10.38;;;7.00;;
67602;SDS011;54417;47.454;18.918;2023-06-19T02:42:45;8.75;;;6.72;;
67602;SDS011;54417;47.454;18.918;2023-06-19T02:47:54;8.00;;;7.20;;
67602;SDS011;54417;47.454;18.918;2023-06-19T02:53:03;9.90;;;7.00;;
67602;SDS011;54417;47.454;18.918;2023-06-19T02:58:13;11.80;;;7.05;;
67602;SDS011;54417;47.454;18.918;2023-06-19T03:03:22;12.20;;;7.27;;
67602;SDS011;54417;47.454;18.918;2023-06-19T03:08:26;15.00;;;7.20;;
67602;SDS011;54417;47.454;18.918;2023-06-19T03:13:44;9.95;;;6.60;;
67602;SDS011;54417;47.454;18.918;2023-06-19T03:18:55;7.55;;;6.50;;
67602;SDS011;54417;47.454;18.918;2023-06-19T03:24:04;9.02;;;6.63;;
67602;SDS011;54417;47.454;18.918;2023-06-19T03:29:11;7.00;;;6.10;;
67602;SDS011;54417;47.454;18.918;2023-06-19T03:34:28;7.32;;;6.05;;
67602;SDS011;54417;47.454;18.918;2023-06-19T03:39:38;14.27;;;6.77;;
67602;SDS011;54417;47.454;18.918;2023-06-19T03:44:51;7.82;;;6.30;;
67602;SDS011;54417;47.454;18.918;2023-06-19T03:50:00;11.90;;;6.50;;
67602;SDS011;54417;47.454;18.918;2023-06-19T03:55:27;8.38;;;6.82;;
67602;SDS011;54417;47.454;18.918;2023-06-19T04:00:32;14.07;;;6.88;;
67602;SDS011;54417;47.454;18.918;2023-06-19T04:05:41;14.18;;;7.50;;
67602;SDS011;54417;47.454;18.918;2023-06-19T04:10:51;16.88;;;7.30;;
67602;SDS011;54417;47.454;18.918;2023-06-19T04:16:02;8.85;;;6.13;;
67602;SDS011;54417;47.454;18.918;2023-06-19T04:21:06;5.93;;;5.30;;
67602;SDS011;54417;47.454;18.918;2023-06-19T04:26:15;8.57;;;6.03;;
67602;SDS011;54417;47.454;18.918;2023-06-19T04:31:21;10.73;;;6.25;;
67602;SDS011;54417;47.454;18.918;2023-06-19T04:36:25;8.02;;;6.30;;
67602;SDS011;54417;47.454;18.918;2023-06-19T04:41:34;9.57;;;6.32;;
67602;SDS011;54417;47.454;18.918;2023-06-19T04:46:47;7.65;;;6.18;;
67602;SDS011;54417;47.454;18.918;2023-06-19T04:51:51;9.25;;;5.93;;
67602;SDS011;54417;47.454;18.918;2023-06-19T04:56:54;8.43;;;5.88;;
67602;SDS011;54417;47.454;18.918;2023-06-19T05:01:59;9.25;;;6.75;;
67602;SDS011;54417;47.454;18.918;2023-06-19T05:07:08;8.82;;;6.53;;
67602;SDS011;54417;47.454;18.918;2023-06-19T05:12:14;8.95;;;6.43;;
67602;SDS011;54417;47.454;18.918;2023-06-19T05:17:25;12.70;;;6.80;;
67602;SDS011;54417;47.454;18.918;2023-06-19T05:27:43;19.50;;;5.93;;
67602;SDS011;54417;47.454;18.918;2023-06-19T05:32:53;8.43;;;6.45;;
67602;SDS011;54417;47.454;18.918;2023-06-19T05:38:02;18.90;;;7.07;;
67602;SDS011;54417;47.454;18.918;2023-06-19T05:48:17;7.82;;;6.20;;
67602;SDS011;54417;47.454;18.918;2023-06-19T05:53:26;10.00;;;6.13;;
67602;SDS011;54417;47.454;18.918;2023-06-19T05:58:30;10.52;;;5.30;;
67602;SDS011;54417;47.454;18.918;2023-06-19T06:03:40;7.70;;;5.20;;
67602;SDS011;54417;47.454;18.918;2023-06-19T06:08:48;6.70;;;5.05;;
67602;SDS011;54417;47.454;18.918;2023-06-19T06:13:53;8.48;;;6.10;;
67602;SDS011;54417;47.454;18.918;2023-06-19T06:19:03;8.23;;;5.72;;
67602;SDS011;54417;47.454;18.918;2023-06-19T06:24:12;7.80;;;5.38;;
67602;SDS011;54417;47.454;18.918;2023-06-19T06:29:21;8.80;;;6.55;;
67602;SDS011;54417;47.454;18.918;2023-06-19T06:34:31;9.63;;;5.43;;
67602;SDS011;54417;47.454;18.918;2023-06-19T06:39:40;8.43;;;5.63;;
67602;SDS011;54417;47.454;18.918;2023-06-19T06:44:49;8.98;;;4.78;;
67602;SDS011;54417;47.454;18.918;2023-06-19T06:49:59;8.32;;;5.40;;
67602;SDS011;54417;47.454;18.918;2023-06-19T06:55:08;7.63;;;4.90;;
67602;SDS011;54417;47.454;18.918;2023-06-19T07:00:17;11.63;;;4.75;;
67602;SDS011;54417;47.454;18.918;2023-06-19T07:05:28;9.90;;;5.28;;
67602;SDS011;54417;47.454;18.918;2023-06-19T07:10:37;7.25;;;5.18;;
67602;SDS011;54417;47.454;18.918;2023-06-19T07:15:45;9.97;;;4.53;;
67602;SDS011;54417;47.454;18.918;2023-06-19T07:20:56;9.43;;;5.40;;
67602;SDS011;54417;47.454;18.918;2023-06-19T07:26:04;6.05;;;5.00;;
67602;SDS011;54417;47.454;18.918;2023-06-19T07:31:13;10.47;;;4.80;;
67602;SDS011;54417;47.454;18.918;2023-06-19T07:36:23;9.02;;;4.70;;
67602;SDS011;54417;47.454;18.918;2023-06-19T07:41:32;6.25;;;4.97;;
67602;SDS011;54417;47.454;18.918;2023-06-19T07:46:41;7.68;;;4.75;;
67602;SDS011;54417;47.454;18.918;2023-06-19T07:57:00;9.90;;;4.72;;
67602;SDS011;54417;47.454;18.918;2023-06-19T08:02:09;10.63;;;4.88;;
67602;SDS011;54417;47.454;18.918;2023-06-19T08:07:19;11.10;;;4.70;;
67602;SDS011;54417;47.454;18.918;2023-06-19T08:12:27;11.07;;;5.20;;
67602;SDS011;54417;47.454;18.918;2023-06-19T08:17:36;11.45;;;4.60;;
67602;SDS011;54417;47.454;18.918;2023-06-19T08:22:46;7.85;;;5.10;;
67602;SDS011;54417;47.454;18.918;2023-06-19T08:27:55;5.57;;;4.55;;
67602;SDS011;54417;47.454;18.918;2023-06-19T08:33:04;6.10;;;4.20;;
67602;SDS011;54417;47.454;18.918;2023-06-19T08:38:14;6.05;;;4.78;;
67602;SDS011;54417;47.454;18.918;2023-06-19T08:43:22;15.70;;;4.78;;
67602;SDS011;54417;47.454;18.918;2023-06-19T08:48:34;4.72;;;4.13;;
67602;SDS011;54417;47.454;18.918;2023-06-19T08:53:47;6.78;;;4.78;;
67602;SDS011;54417;47.454;18.918;2023-06-19T08:58:53;6.68;;;4.00;;
67602;SDS011;54417;47.454;18.918;2023-06-19T09:09:18;6.03;;;4.18;;
67602;SDS011;54417;47.454;18.918;2023-06-19T09:14:31;5.40;;;4.20;;
67602;SDS011;54417;47.454;18.918;2023-06-19T09:19:47;6.75;;;4.03;;
67602;SDS011;54417;47.454;18.918;2023-06-19T09:24:59;6.57;;;3.45;;
67602;SDS011;54417;47.454;18.918;2023-06-19T09:30:14;8.27;;;4.28;;
67602;SDS011;54417;47.454;18.918;2023-06-19T09:35:26;7.07;;;4.40;;
67602;SDS011;54417;47.454;18.918;2023-06-19T09:40:40;4.88;;;4.15;;
67602;SDS011;54417;47.454;18.918;2023-06-19T09:45:49;11.80;;;4.60;;
67602;SDS011;54417;47.454;18.918;2023-06-19T09:51:07;4.32;;;3.92;;
67602;SDS011;54417;47.454;18.918;2023-06-19T09:56:19;6.55;;;4.00;;
67602;SDS011;54417;47.454;18.918;2023-06-19T10:01:24;6.80;;;4.53;;
67602;SDS011;54417;47.454;18.918;2023-06-19T10:06:29;10.00;;;4.82;;
67602;SDS011;54417;47.454;18.918;2023-06-19T10:11:47;9.27;;;4.22;;
67602;SDS011;54417;47.454;18.918;2023-06-19T10:17:07;7.55;;;4.45;;
67602;SDS011;54417;47.454;18.918;2023-06-19T10:22:19;7.50;;;4.07;;
67602;SDS011;54417;47.454;18.918;2023-06-19T10:27:25;6.90;;;4.13;;
67602;SDS011;54417;47.454;18.918;2023-06-19T10:32:34;16.25;;;4.20;;
67602;SDS011;54417;47.454;18.918;2023-06-19T10:42:53;5.72;;;3.90;;
67602;SDS011;54417;47.454;18.918;2023-06-19T10:47:57;4.97;;;4.15;;
67602;SDS011;54417;47.454;18.918;2023-06-19T10:53:04;6.75;;;4.55;;
67602;SDS011;54417;47.454;18.918;2023-06-19T10:58:11;6.53;;;4.10;;
67602;SDS011;54417;47.454;18.918;2023-06-19T11:03:20;5.20;;;3.90;;
67602;SDS011;54417;47.454;18.918;2023-06-19T11:08:29;5.55;;;4.35;;
67602;SDS011;54417;47.454;18.918;2023-06-19T11:18:43;6.50;;;3.90;;
67602;SDS011;54417;47.454;18.918;2023-06-19T11:23:52;4.72;;;3.92;;
67602;SDS011;54417;47.454;18.918;2023-06-19T11:29:12;7.55;;;4.47;;
67602;SDS011;54417;47.454;18.918;2023-06-19T11:34:30;7.90;;;4.32;;
67602;SDS011;54417;47.454;18.918;2023-06-19T11:39:41;6.47;;;4.13;;
67602;SDS011;54417;47.454;18.918;2023-06-19T11:44:53;10.40;;;4.35;;
67602;SDS011;54417;47.454;18.918;2023-06-19T11:50:03;4.65;;;3.80;;
67602;SDS011;54417;47.454;18.918;2023-06-19T11:55:13;6.90;;;4.78;;
67602;SDS011;54417;47.454;18.918;2023-06-19T12:00:24;5.75;;;4.47;;
67602;SDS011;54417;47.454;18.918;2023-06-19T12:05:33;10.27;;;4.57;;
67602;SDS011;54417;47.454;18.918;2023-06-19T12:10:42;5.03;;;4.30;;
67602;SDS011;54417;47.454;18.918;2023-06-19T12:15:52;5.13;;;4.45;;
67602;SDS011;54417;47.454;18.918;2023-06-19T12:21:01;8.48;;;4.25;;
67602;SDS011;54417;47.454;18.918;2023-06-19T12:26:09;6.95;;;4.65;;
67602;SDS011;54417;47.454;18.918;2023-06-19T12:31:15;9.02;;;4.95;;
67602;SDS011;54417;47.454;18.918;2023-06-19T12:36:24;6.32;;;4.25;;
67602;SDS011;54417;47.454;18.918;2023-06-19T12:41:28;5.95;;;4.80;;
67602;SDS011;54417;47.454;18.918;2023-06-19T12:46:38;6.65;;;4.32;;
67602;SDS011;54417;47.454;18.918;2023-06-19T12:51:48;5.45;;;4.28;;
67602;SDS011;54417;47.454;18.918;2023-06-19T12:56:53;5.53;;;4.40;;
67602;SDS011;54417;47.454;18.918;2023-06-19T13:02:04;7.18;;;4.28;;
67602;SDS011;54417;47.454;18.918;2023-06-19T13:07:13;8.15;;;4.43;;
67602;SDS011;54417;47.454;18.918;2023-06-19T13:12:22;8.32;;;4.57;;
67602;SDS011;54417;47.454;18.918;2023-06-19T13:17:32;7.50;;;4.03;;
67602;SDS011;54417;47.454;18.918;2023-06-19T13:22:41;7.10;;;4.57;;
67602;SDS011;54417;47.454;18.918;2023-06-19T13:27:50;5.18;;;4.38;;
67602;SDS011;54417;47.454;18.918;2023-06-19T13:33:00;5.78;;;4.82;;
67602;SDS011;54417;47.454;18.918;2023-06-19T13:38:06;6.13;;;4.20;;
67602;SDS011;54417;47.454;18.918;2023-06-19T13:43:17;6.05;;;4.30;;
67602;SDS011;54417;47.454;18.918;2023-06-19T13:48:28;6.05;;;4.88;;
67602;SDS011;54417;47.454;18.918;2023-06-19T13:53:37;7.45;;;4.53;;
67602;SDS011;54417;47.454;18.918;2023-06-19T13:58:45;5.05;;;4.18;;
67602;SDS011;54417;47.454;18.918;2023-06-19T14:03:56;4.60;;;4.20;;
67602;SDS011;54417;47.454;18.918;2023-06-19T14:09:05;6.15;;;5.03;;
67602;SDS011;54417;47.454;18.918;2023-06-19T14:14:14;10.70;;;4.60;;
67602;SDS011;54417;47.454;18.918;2023-06-19T14:19:24;9.30;;;4.70;;
67602;SDS011;54417;47.454;18.918;2023-06-19T14:24:28;7.28;;;4.47;;
67602;SDS011;54417;47.454;18.918;2023-06-19T14:29:37;8.70;;;4.57;;
67602;SDS011;54417;47.454;18.918;2023-06-19T14:34:47;5.75;;;4.63;;
67602;SDS011;54417;47.454;18.918;2023-06-19T14:39:56;6.18;;;5.22;;
67602;SDS011;54417;47.454;18.918;2023-06-19T14:45:05;7.32;;;4.70;;
67602;SDS011;54417;47.454;18.918;2023-06-19T14:50:11;7.45;;;5.05;;
67602;SDS011;54417;47.454;18.918;2023-06-19T14:55:15;5.88;;;4.53;;
67602;SDS011;54417;47.454;18.918;2023-06-19T15:00:24;9.77;;;5.00;;
67602;SDS011;54417;47.454;18.918;2023-06-19T15:05:34;9.73;;;5.13;;
67602;SDS011;54417;47.454;18.918;2023-06-19T15:10:43;7.55;;;5.10;;
67602;SDS011;54417;47.454;18.918;2023-06-19T15:15:52;6.78;;;4.43;;
67602;SDS011;54417;47.454;18.918;2023-06-19T15:21:02;9.95;;;4.90;;
67602;SDS011;54417;47.454;18.918;2023-06-19T15:26:07;10.70;;;4.43;;
67602;SDS011;54417;47.454;18.918;2023-06-19T15:31:16;10.18;;;4.63;;
67602;SDS011;54417;47.454;18.918;2023-06-19T15:36:27;7.03;;;4.50;;
67602;SDS011;54417;47.454;18.918;2023-06-19T15:41:30;6.53;;;4.72;;
67602;SDS011;54417;47.454;18.918;2023-06-19T15:46:39;7.80;;;4.22;;
67602;SDS011;54417;47.454;18.918;2023-06-19T15:51:50;6.68;;;4.75;;
67602;SDS011;54417;47.454;18.918;2023-06-19T15:56:58;5.53;;;4.15;;
67602;SDS011;54417;47.454;18.918;2023-06-19T16:02:02;5.15;;;4.68;;
67602;SDS011;54417;47.454;18.918;2023-06-19T16:07:13;7.20;;;4.47;;
67602;SDS011;54417;47.454;18.918;2023-06-19T16:12:22;4.65;;;4.22;;
67602;SDS011;54417;47.454;18.918;2023-06-19T16:17:30;5.88;;;5.00;;
67602;SDS011;54417;47.454;18.918;2023-06-19T16:22:36;7.63;;;4.90;;
67602;SDS011;54417;47.454;18.918;2023-06-19T16:27:39;6.43;;;4.72;;
67602;SDS011;54417;47.454;18.918;2023-06-19T16:32:43;9.13;;;4.40;;
67602;SDS011;54417;47.454;18.918;2023-06-19T16:37:49;8.52;;;4.75;;
67602;SDS011;54417;47.454;18.918;2023-06-19T16:42:55;8.55;;;4.88;;
67602;SDS011;54417;47.454;18.918;2023-06-19T16:48:05;9.02;;;4.53;;
67602;SDS011;54417;47.454;18.918;2023-06-19T16:53:16;7.50;;;4.82;;
67602;SDS011;54417;47.454;18.918;2023-06-19T16:58:25;8.63;;;5.28;;
67602;SDS011;54417;47.454;18.918;2023-06-19T17:03:29;7.35;;;4.65;;
67602;SDS011;54417;47.454;18.918;2023-06-19T17:08:34;6.25;;;4.63;;
67602;SDS011;54417;47.454;18.918;2023-06-19T17:13:38;8.10;;;4.95;;
67602;SDS011;54417;47.454;18.918;2023-06-19T17:18:47;6.28;;;4.88;;
67602;SDS011;54417;47.454;18.918;2023-06-19T17:29:01;6.55;;;4.65;;
67602;SDS011;54417;47.454;18.918;2023-06-19T17:34:11;8.10;;;5.07;;
67602;SDS011;54417;47.454;18.918;2023-06-19T17:39:17;7.85;;;5.18;;
67602;SDS011;54417;47.454;18.918;2023-06-19T17:44:20;7.35;;;5.05;;
67602;SDS011;54417;47.454;18.918;2023-06-19T17:49:32;9.55;;;5.00;;
67602;SDS011;54417;47.454;18.918;2023-06-19T17:54:43;19.85;;;5.57;;
67602;SDS011;54417;47.454;18.918;2023-06-19T17:59:56;5.30;;;4.80;;
67602;SDS011;54417;47.454;18.918;2023-06-19T18:05:05;5.78;;;5.10;;
67602;SDS011;54417;47.454;18.918;2023-06-19T18:15:24;8.65;;;5.15;;
67602;SDS011;54417;47.454;18.918;2023-06-19T18:20:32;6.18;;;4.93;;
67602;SDS011;54417;47.454;18.918;2023-06-19T18:25:38;7.70;;;5.53;;
67602;SDS011;54417;47.454;18.918;2023-06-19T18:30:42;8.95;;;5.45;;
67602;SDS011;54417;47.454;18.918;2023-06-19T18:35:50;10.07;;;5.30;;
67602;SDS011;54417;47.454;18.918;2023-06-19T18:40:55;9.95;;;6.20;;
67602;SDS011;54417;47.454;18.918;2023-06-19T18:45:59;6.60;;;5.35;;
67602;SDS011;54417;47.454;18.918;2023-06-19T18:51:08;11.30;;;6.40;;
67602;SDS011;54417;47.454;18.918;2023-06-19T18:56:13;16.08;;;6.20;;
67602;SDS011;54417;47.454;18.918;2023-06-19T19:01:20;9.23;;;6.32;;
67602;SDS011;54417;47.454;18.918;2023-06-19T19:06:29;7.00;;;6.30;;
67602;SDS011;54417;47.454;18.918;2023-06-19T19:11:39;11.88;;;6.85;;
67602;SDS011;54417;47.454;18.918;2023-06-19T19:16:48;11.88;;;6.70;;
67602;SDS011;54417;47.454;18.918;2023-06-19T19:21:51;8.73;;;6.22;;
67602;SDS011;54417;47.454;18.918;2023-06-19T19:27:02;11.85;;;6.60;;
67602;SDS011;54417;47.454;18.918;2023-06-19T19:32:11;12.90;;;6.13;;
67602;SDS011;54417;47.454;18.918;2023-06-19T19:37:19;11.45;;;6.53;;
67602;SDS011;54417;47.454;18.918;2023-06-19T19:42:30;8.02;;;6.22;;
67602;SDS011;54417;47.454;18.918;2023-06-19T19:47:41;10.18;;;6.75;;
67602;SDS011;54417;47.454;18.918;2023-06-19T19:52:45;9.30;;;6.13;;
67602;SDS011;54417;47.454;18.918;2023-06-19T19:57:50;9.35;;;6.80;;
67602;SDS011;54417;47.454;18.918;2023-06-19T20:02:59;7.13;;;6.40;;
67602;SDS011;54417;47.454;18.918;2023-06-19T20:08:08;10.10;;;6.90;;
67602;SDS011;54417;47.454;18.918;2023-06-19T20:13:13;10.20;;;7.63;;
67602;SDS011;54417;47.454;18.918;2023-06-19T20:18:23;9.23;;;7.30;;
67602;SDS011;54417;47.454;18.918;2023-06-19T20:23:34;21.48;;;7.45;;
67602;SDS011;54417;47.454;18.918;2023-06-19T20:28:44;12.77;;;7.53;;
67602;SDS011;54417;47.454;18.918;2023-06-19T20:33:55;15.18;;;7.72;;
67602;SDS011;54417;47.454;18.918;2023-06-19T20:39:04;10.88;;;7.43;;
67602;SDS011;54417;47.454;18.918;2023-06-19T20:44:16;10.77;;;7.85;;
67602;SDS011;54417;47.454;18.918;2023-06-19T20:49:25;9.43;;;8.00;;
67602;SDS011;54417;47.454;18.918;2023-06-19T20:54:34;10.50;;;7.78;;
67602;SDS011;54417;47.454;18.918;2023-06-19T20:59:44;11.10;;;8.05;;
67602;SDS011;54417;47.454;18.918;2023-06-19T21:04:53;13.52;;;8.05;;
67602;SDS011;54417;47.454;18.918;2023-06-19T21:10:02;11.00;;;7.95;;
67602;SDS011;54417;47.454;18.918;2023-06-19T21:15:13;12.70;;;8.82;;
67602;SDS011;54417;47.454;18.918;2023-06-19T21:25:33;7.93;;;7.10;;
67602;SDS011;54417;47.454;18.918;2023-06-19T21:30:43;10.07;;;7.63;;
67602;SDS011;54417;47.454;18.918;2023-06-19T21:35:51;12.30;;;8.05;;
67602;SDS011;54417;47.454;18.918;2023-06-19T21:40:55;10.10;;;7.70;;
67602;SDS011;54417;47.454;18.918;2023-06-19T21:46:06;9.90;;;7.10;;
67602;SDS011;54417;47.454;18.918;2023-06-19T21:51:15;10.88;;;7.43;;
67602;SDS011;54417;47.454;18.918;2023-06-19T21:56:24;10.20;;;7.03;;
67602;SDS011;54417;47.454;18.918;2023-06-19T22:01:34;9.70;;;7.45;;
67602;SDS011;54417;47.454;18.918;2023-06-19T22:11:47;7.90;;;6.35;;
67602;SDS011;54417;47.454;18.918;2023-06-19T22:16:57;16.48;;;7.85;;
67602;SDS011;54417;47.454;18.918;2023-06-19T22:22:01;9.13;;;7.30;;
67602;SDS011;54417;47.454;18.918;2023-06-19T22:27:05;9.73;;;6.90;;
67602;SDS011;54417;47.454;18.918;2023-06-19T22:32:15;8.18;;;7.05;;
67602;SDS011;54417;47.454;18.918;2023-06-19T22:37:21;11.52;;;7.18;;
67602;SDS011;54417;47.454;18.918;2023-06-19T22:42:30;8.48;;;6.97;;
67602;SDS011;54417;47.454;18.918;2023-06-19T22:47:40;10.10;;;7.40;;
67602;SDS011;54417;47.454;18.918;2023-06-19T22:52:46;8.48;;;6.43;;
67602;SDS011;54417;47.454;18.918;2023-06-19T22:57:54;10.73;;;6.50;;
67602;SDS011;54417;47.454;18.918;2023-06-19T23:02:59;9.70;;;6.88;;
67602;SDS011;54417;47.454;18.918;2023-06-19T23:08:04;11.27;;;6.95;;
67602;SDS011;54417;47.454;18.918;2023-06-19T23:13:12;7.68;;;6.88;;
67602;SDS011;54417;47.454;18.918;2023-06-19T23:18:22;11.63;;;6.85;;
67602;SDS011;54417;47.454;18.918;2023-06-19T23:23:26;9.63;;;7.00;;
67602;SDS011;54417;47.454;18.918;2023-06-19T23:33:47;12.15;;;7.18;;
67602;SDS011;54417;47.454;18.918;2023-06-19T23:38:57;8.38;;;6.25;;
67602;SDS011;54417;47.454;18.918;2023-06-19T23:44:05;7.10;;;6.40;;
67602;SDS011;54417;47.454;18.918;2023-06-19T23:49:15;9.75;;;6.97;;
67602;SDS011;54417;47.454;18.918;2023-06-19T23:54:26;9.05;;;7.22;;
67602;SDS011;54417;47.454;18.918;2023-06-19T23:59:30;8.02;;;6.38;;
